WEATHER DATA

YESTERDAY
Time Temp. Dewp. Hum. Wind dir Wind speed Wind gust Bar. 1h Prec. 24h Prec.
00:08 -1.8 -7 64 270 0.3 1.4 1032.6 0.0000 0.0000
00:19 -1.8 -7 64 225 0.3 1.4 1032.4 0.0000 0.0000
00:28 -1.8 -7 64 299 0.8 1.4 1032.4 0.0000 0.0000
00:38 -1.7 -6.9 64 270 0.3 1.4 1032.4 0.0000 0.0000
00:49 -1.6 -7 63 306 0.8 1.9 1032.2 0.0000 0.0000
00:59 -1.6 -7 63 302 0.3 1.9 1032.2 0.0000 0.0000
01:08 -1.6 -7 63 270 0.3 2.8 1032 0.0000 0.0000
01:19 -1.5 -6.9 63 315 0.3 1.4 1032.1 0.0000 0.0000
01:39 -1.7 -7.1 63 322 0.8 1.4 1032 0.0000 0.0000
01:48 -1.8 -7.2 63 270 0.3 1.9 1032 0.0000 0.0000
02:09 -2 -7.4 63 270 0.3 1.4 1032 0.0000 0.0000
02:19 -2.2 -6.7 68 270 0.3 1.1 1032 0.0000 0.0000
02:29 -2.5 -6.4 72 270 0.3 1.4 1032.1 0.0000 0.0000
02:39 -2.8 -6.5 73 212 0.3 1.1 1032 0.0000 0.0000
02:49 -3.2 -6.7 74 270 0.3 0.8 1031.9 0.0000 0.0000
02:59 -3.6 -7 75 270 0.3 1.1 1031.7 0.0000 0.0000
03:10 -3.8 -7 76 270 0.3 0.8 1031.9 0.0000 0.0000
03:19 -4.1 -7.1 77 270 0.3 1.1 1031.8 0.0000 0.0000
03:29 -4.3 -7 79 240 0.3 1.1 1031.6 0.0000 0.0000
03:40 -4.4 -7 80 213 0.3 1.1 1031.7 0.0000 0.0000
03:50 -4.6 -7.2 80 270 0.3 1.9 1031.9 0.0000 0.0000
04:00 -4.8 -7.4 80 292 0.8 1.9 1031.8 0.0000 0.0000
04:09 -5 -7.6 80 235 0.3 0.8 1031.7 0.0000 0.0000
04:20 -5.2 -7.8 80 225 0.3 0.8 1031.6 0.0000 0.0000
04:30 -5.5 -7.9 81 330 0.3 1.4 1031.2 0.0000 0.0000
04:40 -5.7 -8.3 80 315 0.3 1.1 1030.9 0.0000 0.0000
04:50 -5.9 -8.3 81 315 0.8 1.4 1030.7 0.0000 0.0000
05:00 -5.9 -8 83 270 0.3 1.4 1030.6 0.0000 0.0000
05:10 -6.1 -8.2 83 312 0.8 1.4 1030.5 0.0000 0.0000
05:20 -6.2 -8.2 84 270 0.3 1.9 1030.4 0.0000 0.0000
05:30 -6.3 -8.3 84 309 0.3 1.4 1030.4 0.0000 0.0000
05:40 -6.4 -8.4 84 270 0.3 0.8 1030.4 0.0000 0.0000
05:50 -6.5 -8.5 84 270 0.3 0.8 1030.4 0.0000 0.0000
06:00 -6.7 -8.7 84 225 0.3 0.8 1030.3 0.0000 0.0000
06:11 -6.8 -8.7 85 236 0.3 0.8 1030.3 0.0000 0.0000
06:20 -6.9 -8.8 85 315 0.8 1.4 1030.3 0.0000 0.0000
06:30 -7.1 -9 85 302 0.3 1.1 1030.4 0.0000 0.0000
06:41 -7.3 -9.3 84 318 0.3 1.9 1030.5 0.0000 0.0000
06:51 -7.4 -9.3 85 329 0.3 1.1 1030.4 0.0000 0.0000
07:00 -7.3 -8.9 87 303 0.3 1.4 1030.5 0.0000 0.0000
07:11 -7.3 -8.9 87 304 0.3 0.8 1030.3 0.0000 0.0000
07:21 -7.2 -8.7 88 310 0.3 1.4 1030.3 0.0000 0.0000
07:31 -7.1 -8.4 89 315 0.8 1.4 1030.4 0.0000 0.0000
07:40 -7 -8.3 89 270 0.3 0.8 1030.6 0.0000 0.0000
07:51 -7 -8.3 89 302 0.3 1.1 1030.5 0.0000 0.0000
08:01 -7 -8.3 89 225 0.3 0.8 1030.6 0.0000 0.0000
08:11 -6.9 -8.2 89 239 0.3 1.1 1030.4 0.0000 0.0000
08:21 -6.8 -8 90 270 0.3 1.4 1030.1 0.0000 0.0000
08:31 -6.7 -7.9 90 225 0.3 1.1 1030.2 0.0000 0.0000
08:41 -6.6 -7.8 90 270 0.3 1.4 1030.2 0.0000 0.0000
08:51 -6.4 -7.5 91 231 0.3 1.1 1030.2 0.0000 0.0000
09:02 -5.7 -6.7 92 295 0.8 1.9 1030 0.0000 0.0000
09:11 -5.1 -6.2 91 306 0.3 1.4 1030.1 0.0000 0.0000
09:21 -4.6 -5.7 91 325 0.3 1.4 1030.3 0.0000 0.0000
09:32 -3.6 -4.8 90 315 0.3 1.9 1029.9 0.0000 0.0000
09:42 -2.8 -4.4 87 205 0.3 1.4 1029.7 0.0000 0.0000
09:52 -2.7 -4.9 83 288 0.8 2.8 1029.6 0.0000 0.0000
10:01 -2.8 -5.1 82 225 0.3 1.4 1029.6 0.0000 0.0000
10:12 -3 -5.3 82 219 0.3 1.4 1029.9 0.0000 0.0000
10:22 -2.8 -5.1 82 203 0.3 1.4 1029.9 0.0000 0.0000
10:32 -2.8 -5.1 82 315 0.3 1.4 1030 0.0000 0.0000
10:42 -2.7 -5 82 212 0.3 1.9 1029.6 0.0000 0.0000
10:52 -2.8 -5.1 82 191 0.8 2.8 1029.2 0.0000 0.0000
11:02 -2.7 -4.8 84 310 0.3 1.4 1029 0.0000 0.0000
11:12 -2.5 -4.8 82 198 0.8 2.2 1029 0.0000 0.0000
11:22 -2.7 -5 82 231 0.3 1.4 1029.1 0.0000 0.0000
11:32 -2.8 -5.1 82 270 0.3 1.1 1029 0.0000 0.0000
11:42 -2.7 -4.8 84 198 0.8 1.9 1028.9 0.0000 0.0000
11:52 -2 -4.1 84 270 0.3 1.4 1028.8 0.0000 0.0000
12:03 -1.2 -3.4 83 332 0.8 1.9 1028.7 0.0000 0.0000
12:12 -0.8 -3.3 81 317 0.8 2.8 1028.6 0.0000 0.0000
12:22 -0.3 -3.1 79 255 0.8 2.8 1028.4 0.0000 0.0000
12:33 -0.4 -3.2 79 308 0.8 2.2 1028.1 0.0000 0.0000
12:43 -0.6 -3.7 77 225 0.8 2.8 1027.9 0.0000 0.0000
12:52 -1.1 -4.1 78 245 0.8 1.9 1027.9 0.0000 0.0000
13:03 -1.2 -3.9 80 315 0.8 2.2 1027.6 0.0000 0.0000
13:13 -1.1 -3.6 81 206 0.8 2.2 1027.6 0.0000 0.0000
13:23 -1.2 -3.7 81 196 0.8 1.9 1027.3 0.0000 0.0000
13:32 -1 -3.5 81 251 0.8 1.9 1026.7 0.0000 0.0000
13:43 -0.8 -3.5 80 203 1.1 3.1 1026.5 0.0000 0.0000
13:53 -0.6 -3.3 80 300 1.1 2.8 1026.3 0.0000 0.0000
14:03 -0.6 -3.4 79 183 0.8 1.4 1026.3 0.0000 0.0000
14:13 -0.4 -3.2 79 240 0.8 2.2 1026 0.0000 0.0000
14:23 0 -2.8 79 270 0.3 1.9 1026 0.0000 0.0000
14:33 0.1 -2.9 78 198 0.3 2.2 1025.7 0.0000 0.0000
14:43 0.2 -2.8 78 176 0.8 2.2 1025.8 0.0000 0.0000
14:54 0.4 -2.8 77 348 0.3 1.4 1025.6 0.0000 0.0000
15:03 0.2 -3 77 315 0.3 1.4 1025.6 0.0000 0.0000
15:12 -0.2 -3.3 77 270 0.3 1.1 1025.6 0.0000 0.0000
15:24 -0.4 -3.4 78 210 0.3 1.4 1025.4 0.0000 0.0000
15:34 -0.6 -3.6 78 225 0.3 1.4 1025.2 0.0000 0.0000
15:44 -0.7 -3.5 79 307 0.8 1.4 1025.1 0.0000 0.0000
15:53 -0.8 -3.6 79 323 0.8 1.9 1024.9 0.0000 0.0000
16:04 -0.9 -3.7 79 270 0.3 1.4 1024.9 0.0000 0.0000
16:14 -1 -3.8 79 229 0.3 1.1 1024.8 0.0000 0.0000
16:24 -1.2 -4 79 225 0.3 1.1 1024.8 0.0000 0.0000
16:34 -1.4 -4.1 80 239 0.3 1.4 1024.6 0.0000 0.0000
16:44 -1.6 -4.3 80 220 0.8 1.4 1024.5 0.0000 0.0000
16:54 -1.8 -4.3 81 205 0.3 1.4 1024.3 0.0000 0.0000
17:04 -1.9 -4.3 82 304 0.3 1.4 1024.6 0.0000 0.0000
17:15 -2 -4.4 82 214 0.8 2.2 1024.6 0.0000 0.0000
17:24 -2.1 -4.5 82 270 0.3 1.1 1024.4 0.0000 0.0000
17:34 -2.4 -4.7 82 225 0.8 1.4 1024.2 0.0000 0.0000
17:44 -2.6 -4.8 83 309 0.3 1.1 1024.4 0.0000 0.0000
17:55 -2.9 -5.1 83 210 0.8 2.8 1024.3 0.0000 0.0000
18:04 -3.1 -5.3 83 270 0.3 1.1 1024 0.0000 0.0000
18:14 -3.3 -5.5 83 317 0.8 1.4 1024.2 0.0000 0.0000
18:25 -3.6 -5.9 82 329 1.1 2.2 1024 0.0000 0.0000
18:35 -3.7 -6.2 81 315 0.8 1.9 1023.7 0.0000 0.0000
18:45 -3.5 -6.3 79 293 0.8 2.8 1023.9 0.0000 0.0000
18:55 -3.5 -6.4 78 328 1.1 3.1 1024.1 0.0000 0.0000
19:05 -3.6 -6.2 80 225 0.3 1.4 1024 0.0000 0.0000
19:15 -3.9 -6.5 80 270 0.3 0.8 1024.2 0.0000 0.0000
19:25 -4.2 -6.7 81 270 0.3 1.4 1024.1 0.0000 0.0000
19:35 -4.5 -7 81 270 0.3 1.1 1024 0.0000 0.0000
19:45 -4.7 -7 82 270 0.3 0.8 1024.1 0.0000 0.0000
19:55 -4.9 -7.2 82 270 0.3 0.8 1024.1 0.0000 0.0000
20:05 -5 -7.2 83 312 0.8 1.4 1023.9 0.0000 0.0000
20:16 -4.9 -7.1 83 324 0.8 2.8 1023.6 0.0000 0.0000
20:25 -4.8 -7.1 82 270 0.3 1.1 1023.9 0.0000 0.0000
20:35 -4.6 -7 81 270 0.3 1.1 1023.6 0.0000 0.0000
20:46 -4.4 -7.1 79 230 0.3 1.1 1023.6 0.0000 0.0000
20:56 -4.5 -7.2 79 306 0.8 1.9 1023.6 0.0000 0.0000
21:06 -4.7 -7.4 79 315 0.3 1.9 1023.7 0.0000 0.0000
21:16 -4.9 -7.5 80 302 0.8 2.2 1023.7 0.0000 0.0000
21:26 -4.8 -7 83 315 1.1 2.8 1023.5 0.0000 0.0000
21:36 -4.6 -6.5 85 317 0.8 1.4 1023.5 0.0000 0.0000
21:46 -4.4 -6.2 86 315 0.8 1.4 1023.4 0.0000 0.0000
21:56 -4 -5.6 87 292 0.8 2.2 1023.3 0.0000 0.0000
22:06 -3.7 -5.5 86 312 1.1 2.2 1023 0.0000 0.0000
22:16 -3.3 -5.1 86 323 1.1 2.2 1023.1 0.0000 0.0000
22:26 -3.1 -4.9 86 331 1.1 2.8 1023 0.0000 0.0000
22:37 -2.9 -4.8 85 324 1.1 2.8 1022.7 0.0000 0.0000
22:46 -2.8 -4.7 85 315 1.1 1.9 1022.7 0.0000 0.0000
22:56 -2.6 -4.5 85 319 0.8 2.2 1022.7 0.0000 0.0000
23:07 -2.5 -4.4 85 315 0.8 1.4 1022.5 0.0000 0.0000
23:17 -2.4 -4.3 85 315 0.3 1.9 1022.4 0.0000 0.0000
23:26 -2.4 -4.6 83 202 0.8 2.2 1022.5 0.0000 0.0000
23:36 -2.5 -4.7 83 270 0.3 1.1 1022 0.0000 0.0000
23:47 -2.5 -4.7 83 202 0.3 1.4 1022 0.0000 0.0000
23:57 -2.5 -4.7 83 225 0.3 1.1 1021.7 0.0000 0.0000

DAY STATISTIC

2018-11-18
TEMPERATURE
AVERAGE
-3.4
HIGH
0.4
14:54
LOW
-7.4
06:51
PRESSURE
AVERAGE
1027.6
HIGH
1032.6
00:08
LOW
1021.7
23:57
DEWPOINT
AVERAGE
-5.9
HIGH
-2.8
14:23
LOW
-9.3
06:41
HUMIDITY
AVERAGE
81
HIGH
92
09:02
LOW
63
00:49
WIND SPEED
AVERAGE
0.5
HIGH
1.1
13:43
WIND GUST
AVERAGE
1.6
HIGH
3.1
13:43
WIND DIRECTION
PREVAILING
NW
39.7%
N
0.7
NE
0.0
E
0.0
SE
0.0
S
7.8
SW
24.1
W
27.7
NW
39.7
PRECIPITATION
RAIN HOUR
0.0
RAIN DAY
0.0
TEMPERATURE (°C)
LOW
-7.4
HIGH
0.4
AVERAGE
-3.4
PRESSURE (hpa)
LOW
1021.7
HIGH
1032.6
AVERAGE
1027.6
DEVICE